Brandon Municipal Airport


Codes: CYBR/YBR
Name: Brandon Municipal Airport
City: Brandon
Country: Canada
Elevation: 1343 ft.
Wikipedia:

Photos at Brandon Municipal Airport


   Photos courtesy of SpottingLog. You can add your own sightings and photos by signing up for a free trial today.



No photos found.

Weather at Brandon Municipal Airport


Time (UTC)DescriptionTempratureWindCloud coverageVisibilityPressureHumidity
21-Feb-2024 03:00Broken Clouds-10°C2 mph, NW75%10000m1012hPa85%
21-Feb-2024 06:00Broken Clouds-10°C2 mph, NE83%10000m1013hPa88%
21-Feb-2024 09:00Overcast Clouds-9°C4 mph, E92%10000m1013hPa91%
21-Feb-2024 12:00Overcast Clouds-11°C4 mph, NE93%9931m1014hPa96%
21-Feb-2024 15:00Overcast Clouds-8°C4 mph, NE100%10000m1013hPa92%
21-Feb-2024 18:00Overcast Clouds-5°C4 mph, E100%10000m1013hPa85%
21-Feb-2024 21:00Overcast Clouds-3°C2 mph, N100%10000m1012hPa83%
22-Feb-2024 00:00Broken Clouds-7°C2 mph, W80%10000m1012hPa93%
22-Feb-2024 03:00Overcast Clouds-8°C7 mph, W88%10000m1013hPa92%
22-Feb-2024 06:00Broken Clouds-9°C9 mph, W55%10000m1013hPa92%
22-Feb-2024 09:00Scattered Clouds-9°C11 mph, W26%10000m1013hPa88%
22-Feb-2024 12:00Scattered Clouds-8°C13 mph, W48%10000m1012hPa86%
22-Feb-2024 15:00Overcast Clouds-6°C13 mph, W93%10000m1011hPa89%
22-Feb-2024 18:00Broken Clouds-2°C11 mph, NW77%10000m1012hPa87%
22-Feb-2024 21:00Scattered Clouds-1°C9 mph, NW36%10000m1013hPa88%
23-Feb-2024 00:00Light Snow-4°C2 mph, N50%3999m1014hPa95%
23-Feb-2024 03:00Light Snow-8°C11 mph, NE100%539m1017hPa93%
23-Feb-2024 06:00Light Snow-11°C9 mph, NE100%483m1018hPa94%
23-Feb-2024 09:00Light Snow-13°C9 mph, E100%4958m1019hPa93%
23-Feb-2024 12:00Light Snow-13°C9 mph, E100%305m1019hPa94%
23-Feb-2024 15:00Light Snow-13°C9 mph, E99%3217m1020hPa92%
23-Feb-2024 18:00Overcast Clouds-11°C7 mph, E99%10000m1021hPa85%
23-Feb-2024 21:00Overcast Clouds-9°C4 mph, S99%10000m1019hPa82%
24-Feb-2024 00:00Overcast Clouds-11°C2 mph, S86%10000m1018hPa93%
24-Feb-2024 03:00Broken Clouds-12°C4 mph, SW61%10000m1016hPa97%
24-Feb-2024 06:00Broken Clouds-11°C9 mph, SW67%10000m1012hPa97%
24-Feb-2024 09:00Broken Clouds-9°C9 mph, SW52%10000m1009hPa95%
24-Feb-2024 12:00Broken Clouds-8°C9 mph, W57%10000m1005hPa91%
24-Feb-2024 15:00Broken Clouds-6°C11 mph, W70%10000m1002hPa91%
24-Feb-2024 18:00Broken Clouds-2°C11 mph, W70%10000m1001hPa86%
24-Feb-2024 21:00Overcast Clouds1°C16 mph, W90%10000m1001hPa75%
25-Feb-2024 00:00Broken Clouds-1°C16 mph, W75%10000m1003hPa75%
25-Feb-2024 03:00Broken Clouds-4°C16 mph, W80%10000m1004hPa80%
25-Feb-2024 06:00Broken Clouds-5°C13 mph, W62%10000m1005hPa83%
25-Feb-2024 09:00Broken Clouds-8°C11 mph, W55%10000m1007hPa89%
25-Feb-2024 12:00Scattered Clouds-11°C9 mph, W43%10000m1009hPa92%
25-Feb-2024 15:00Scattered Clouds-12°C7 mph, W31%10000m1011hPa92%
25-Feb-2024 18:00Scattered Clouds-8°C9 mph, W27%10000m1011hPa79%
25-Feb-2024 21:00Few Clouds-6°C4 mph, NW14%10000m1010hPa76%
26-Feb-2024 00:00Scattered Clouds-10°C0 mph, E32%10000m1011hPa89%